sensor_id;sensor_type;location;lat;lon;timestamp;temperature;humidity
61807;DHT22;47726;52.766;6.606;2022-12-18T00:00:40;-1.10;99.90
61807;DHT22;47726;52.766;6.606;2022-12-18T00:03:06;-1.10;99.90
61807;DHT22;47726;52.766;6.606;2022-12-18T00:05:31;-1.10;99.90
61807;DHT22;47726;52.766;6.606;2022-12-18T00:07:57;-1.10;99.90
61807;DHT22;47726;52.766;6.606;2022-12-18T00:10:22;-1.10;99.90
61807;DHT22;47726;52.766;6.606;2022-12-18T00:12:48;-1.20;99.90
61807;DHT22;47726;52.766;6.606;2022-12-18T00:15:14;-1.20;99.90
61807;DHT22;47726;52.766;6.606;2022-12-18T00:17:39;-1.20;99.90
61807;DHT22;47726;52.766;6.606;2022-12-18T00:20:05;-1.20;99.90
61807;DHT22;47726;52.766;6.606;2022-12-18T00:22:31;-1.10;99.90
61807;DHT22;47726;52.766;6.606;2022-12-18T00:24:57;-1.20;99.90
61807;DHT22;47726;52.766;6.606;2022-12-18T00:27:22;-1.20;99.90
61807;DHT22;47726;52.766;6.606;2022-12-18T00:29:48;-1.20;99.90
61807;DHT22;47726;52.766;6.606;2022-12-18T00:32:14;-1.20;99.90
61807;DHT22;47726;52.766;6.606;2022-12-18T00:34:40;-1.20;99.90
61807;DHT22;47726;52.766;6.606;2022-12-18T00:37:05;-1.20;99.90
61807;DHT22;47726;52.766;6.606;2022-12-18T00:39:31;-1.20;99.90
61807;DHT22;47726;52.766;6.606;2022-12-18T00:41:56;-1.20;99.90
61807;DHT22;47726;52.766;6.606;2022-12-18T00:44:40;-1.20;99.90
61807;DHT22;47726;52.766;6.606;2022-12-18T00:47:06;-1.20;99.90
61807;DHT22;47726;52.766;6.606;2022-12-18T00:49:32;-1.20;99.90
61807;DHT22;47726;52.766;6.606;2022-12-18T00:51:57;-1.30;99.90
61807;DHT22;47726;52.766;6.606;2022-12-18T00:54:23;-1.30;99.90
61807;DHT22;47726;52.766;6.606;2022-12-18T00:56:49;-1.30;99.90
61807;DHT22;47726;52.766;6.606;2022-12-18T00:59:15;-1.30;99.90
61807;DHT22;47726;52.766;6.606;2022-12-18T01:01:41;-1.30;99.90
61807;DHT22;47726;52.766;6.606;2022-12-18T01:04:06;-1.30;99.90
61807;DHT22;47726;52.766;6.606;2022-12-18T01:06:32;-1.30;99.90
61807;DHT22;47726;52.766;6.606;2022-12-18T01:08:58;-1.30;99.90
61807;DHT22;47726;52.766;6.606;2022-12-18T01:11:24;-1.30;99.90
61807;DHT22;47726;52.766;6.606;2022-12-18T01:13:51;-1.40;99.90
61807;DHT22;47726;52.766;6.606;2022-12-18T01:16:17;-1.40;99.90
61807;DHT22;47726;52.766;6.606;2022-12-18T01:18:43;-1.40;99.90
61807;DHT22;47726;52.766;6.606;2022-12-18T01:21:11;-1.40;99.90
61807;DHT22;47726;52.766;6.606;2022-12-18T01:23:37;-1.40;99.90
61807;DHT22;47726;52.766;6.606;2022-12-18T01:26:12;-1.40;99.90
61807;DHT22;47726;52.766;6.606;2022-12-18T01:28:39;-1.40;99.90
61807;DHT22;47726;52.766;6.606;2022-12-18T01:31:20;-1.40;99.90
61807;DHT22;47726;52.766;6.606;2022-12-18T01:33:48;-1.50;99.90
61807;DHT22;47726;52.766;6.606;2022-12-18T01:36:19;-1.50;99.90
61807;DHT22;47726;52.766;6.606;2022-12-18T01:38:46;-1.50;99.90
61807;DHT22;47726;52.766;6.606;2022-12-18T01:41:13;-1.50;99.90
61807;DHT22;47726;52.766;6.606;2022-12-18T01:46:07;-1.60;99.90
61807;DHT22;47726;52.766;6.606;2022-12-18T01:48:33;-1.60;99.90
61807;DHT22;47726;52.766;6.606;2022-12-18T01:51:00;-1.70;99.90
61807;DHT22;47726;52.766;6.606;2022-12-18T01:53:26;-1.60;99.90
61807;DHT22;47726;52.766;6.606;2022-12-18T01:55:53;-1.70;99.90
61807;DHT22;47726;52.766;6.606;2022-12-18T01:58:24;-1.70;99.90
61807;DHT22;47726;52.766;6.606;2022-12-18T02:00:55;-1.70;99.90
61807;DHT22;47726;52.766;6.606;2022-12-18T02:03:21;-1.70;99.90
61807;DHT22;47726;52.766;6.606;2022-12-18T02:08:54;-1.80;99.90
61807;DHT22;47726;52.766;6.606;2022-12-18T02:14:31;-1.80;99.90
61807;DHT22;47726;52.766;6.606;2022-12-18T02:22:48;-1.90;99.90
61807;DHT22;47726;52.766;6.606;2022-12-18T02:28:25;-2.00;99.90
61807;DHT22;47726;52.766;6.606;2022-12-18T02:30:56;-2.00;99.90
61807;DHT22;47726;52.766;6.606;2022-12-18T02:33:25;-2.00;99.90
61807;DHT22;47726;52.766;6.606;2022-12-18T02:35:54;-2.00;99.90
61807;DHT22;47726;52.766;6.606;2022-12-18T02:38:20;-2.00;99.90
61807;DHT22;47726;52.766;6.606;2022-12-18T02:40:47;-2.10;99.90
61807;DHT22;47726;52.766;6.606;2022-12-18T02:43:15;-2.10;99.90
61807;DHT22;47726;52.766;6.606;2022-12-18T02:46:29;-2.10;99.90
61807;DHT22;47726;52.766;6.606;2022-12-18T02:49:05;-2.20;99.90
61807;DHT22;47726;52.766;6.606;2022-12-18T02:56:58;-2.20;99.90
61807;DHT22;47726;52.766;6.606;2022-12-18T02:59:39;-2.20;99.90
61807;DHT22;47726;52.766;6.606;2022-12-18T03:05:16;-2.30;99.90
61807;DHT22;47726;52.766;6.606;2022-12-18T03:08:03;-2.30;99.90
61807;DHT22;47726;52.766;6.606;2022-12-18T03:10:35;-2.30;99.90
61807;DHT22;47726;52.766;6.606;2022-12-18T03:13:08;-2.40;99.90
61807;DHT22;47726;52.766;6.606;2022-12-18T03:15:45;-2.40;99.90
61807;DHT22;47726;52.766;6.606;2022-12-18T03:18:23;-2.40;99.90
61807;DHT22;47726;52.766;6.606;2022-12-18T03:20:52;-2.40;99.90
61807;DHT22;47726;52.766;6.606;2022-12-18T03:23:23;-2.40;99.90
61807;DHT22;47726;52.766;6.606;2022-12-18T03:25:53;-2.40;99.90
61807;DHT22;47726;52.766;6.606;2022-12-18T03:28:22;-2.50;99.90
61807;DHT22;47726;52.766;6.606;2022-12-18T03:30:52;-2.50;99.90
61807;DHT22;47726;52.766;6.606;2022-12-18T03:35:49;-2.50;99.90
61807;DHT22;47726;52.766;6.606;2022-12-18T03:38:15;-2.50;99.90
61807;DHT22;47726;52.766;6.606;2022-12-18T03:49:17;-2.60;99.90
61807;DHT22;47726;52.766;6.606;2022-12-18T03:51:53;-2.60;99.90
61807;DHT22;47726;52.766;6.606;2022-12-18T03:54:20;-2.60;99.90
61807;DHT22;47726;52.766;6.606;2022-12-18T03:56:50;-2.70;99.90
61807;DHT22;47726;52.766;6.606;2022-12-18T03:59:19;-2.60;99.90
61807;DHT22;47726;52.766;6.606;2022-12-18T04:01:49;-2.70;99.90
61807;DHT22;47726;52.766;6.606;2022-12-18T04:04:18;-2.70;99.90
61807;DHT22;47726;52.766;6.606;2022-12-18T04:06:46;-2.70;99.90
61807;DHT22;47726;52.766;6.606;2022-12-18T04:09:13;-2.70;99.90
61807;DHT22;47726;52.766;6.606;2022-12-18T04:11:41;-2.70;99.90
61807;DHT22;47726;52.766;6.606;2022-12-18T04:14:07;-2.80;99.90
61807;DHT22;47726;52.766;6.606;2022-12-18T04:16:33;-2.80;99.90
61807;DHT22;47726;52.766;6.606;2022-12-18T04:18:58;-2.80;99.90
61807;DHT22;47726;52.766;6.606;2022-12-18T04:21:24;-2.80;99.90
61807;DHT22;47726;52.766;6.606;2022-12-18T04:23:50;-2.80;99.90
61807;DHT22;47726;52.766;6.606;2022-12-18T04:26:15;-2.80;99.90
61807;DHT22;47726;52.766;6.606;2022-12-18T04:28:41;-2.80;99.90
61807;DHT22;47726;52.766;6.606;2022-12-18T04:31:06;-2.90;99.90
61807;DHT22;47726;52.766;6.606;2022-12-18T04:33:32;-2.90;99.90
61807;DHT22;47726;52.766;6.606;2022-12-18T04:35:58;-2.90;99.90
61807;DHT22;47726;52.766;6.606;2022-12-18T04:38:23;-2.90;99.90
61807;DHT22;47726;52.766;6.606;2022-12-18T04:40:49;-2.90;99.90
61807;DHT22;47726;52.766;6.606;2022-12-18T04:43:14;-2.90;99.90
61807;DHT22;47726;52.766;6.606;2022-12-18T04:45:40;-2.90;99.90
61807;DHT22;47726;52.766;6.606;2022-12-18T04:48:06;-2.90;99.90
61807;DHT22;47726;52.766;6.606;2022-12-18T04:50:32;-3.00;99.90
61807;DHT22;47726;52.766;6.606;2022-12-18T04:52:58;-3.00;99.90
61807;DHT22;47726;52.766;6.606;2022-12-18T04:55:23;-3.00;99.90
61807;DHT22;47726;52.766;6.606;2022-12-18T04:57:52;-3.00;99.90
61807;DHT22;47726;52.766;6.606;2022-12-18T05:00:18;-3.00;99.90
61807;DHT22;47726;52.766;6.606;2022-12-18T05:02:44;-3.00;99.90
61807;DHT22;47726;52.766;6.606;2022-12-18T05:05:09;-3.00;99.90
61807;DHT22;47726;52.766;6.606;2022-12-18T05:07:35;-3.00;99.90
61807;DHT22;47726;52.766;6.606;2022-12-18T05:10:01;-3.10;99.90
61807;DHT22;47726;52.766;6.606;2022-12-18T05:12:26;-3.10;99.90
61807;DHT22;47726;52.766;6.606;2022-12-18T05:14:52;-3.10;99.90
61807;DHT22;47726;52.766;6.606;2022-12-18T05:17:18;-3.10;99.90
61807;DHT22;47726;52.766;6.606;2022-12-18T05:19:43;-3.10;99.90
61807;DHT22;47726;52.766;6.606;2022-12-18T05:22:09;-3.10;99.90
61807;DHT22;47726;52.766;6.606;2022-12-18T05:24:35;-3.10;99.90
61807;DHT22;47726;52.766;6.606;2022-12-18T05:27:01;-3.10;99.90
61807;DHT22;47726;52.766;6.606;2022-12-18T05:29:26;-3.20;99.90
61807;DHT22;47726;52.766;6.606;2022-12-18T05:31:52;-3.20;99.90
61807;DHT22;47726;52.766;6.606;2022-12-18T05:34:18;-3.20;99.90
61807;DHT22;47726;52.766;6.606;2022-12-18T05:36:43;-3.20;99.90
61807;DHT22;47726;52.766;6.606;2022-12-18T05:39:09;-3.20;99.90
61807;DHT22;47726;52.766;6.606;2022-12-18T05:41:35;-3.20;99.90
61807;DHT22;47726;52.766;6.606;2022-12-18T05:44:00;-3.20;99.90
61807;DHT22;47726;52.766;6.606;2022-12-18T05:46:26;-3.30;99.90
61807;DHT22;47726;52.766;6.606;2022-12-18T05:48:52;-3.30;99.90
61807;DHT22;47726;52.766;6.606;2022-12-18T05:51:19;-3.30;99.90
61807;DHT22;47726;52.766;6.606;2022-12-18T05:53:45;-3.30;99.90
61807;DHT22;47726;52.766;6.606;2022-12-18T05:56:14;-3.30;99.90
61807;DHT22;47726;52.766;6.606;2022-12-18T05:58:40;-3.30;99.90
61807;DHT22;47726;52.766;6.606;2022-12-18T06:01:18;-3.30;99.90
61807;DHT22;47726;52.766;6.606;2022-12-18T06:03:45;-3.30;99.90
61807;DHT22;47726;52.766;6.606;2022-12-18T06:06:19;-3.30;99.90
61807;DHT22;47726;52.766;6.606;2022-12-18T06:08:46;-3.40;99.90
61807;DHT22;47726;52.766;6.606;2022-12-18T06:11:13;-3.40;99.90
61807;DHT22;47726;52.766;6.606;2022-12-18T06:13:38;-3.40;99.90
61807;DHT22;47726;52.766;6.606;2022-12-18T06:16:05;-3.40;99.90
61807;DHT22;47726;52.766;6.606;2022-12-18T06:18:32;-3.40;99.90
61807;DHT22;47726;52.766;6.606;2022-12-18T06:20:58;-3.40;99.90
61807;DHT22;47726;52.766;6.606;2022-12-18T06:23:24;-3.40;99.90
61807;DHT22;47726;52.766;6.606;2022-12-18T06:25:50;-3.50;99.90
61807;DHT22;47726;52.766;6.606;2022-12-18T06:28:16;-3.50;99.90
61807;DHT22;47726;52.766;6.606;2022-12-18T06:30:45;-3.50;99.90
61807;DHT22;47726;52.766;6.606;2022-12-18T06:33:11;-3.50;99.90
61807;DHT22;47726;52.766;6.606;2022-12-18T06:35:37;-3.50;99.90
61807;DHT22;47726;52.766;6.606;2022-12-18T06:38:03;-3.60;99.90
61807;DHT22;47726;52.766;6.606;2022-12-18T06:40:28;-3.60;99.90
61807;DHT22;47726;52.766;6.606;2022-12-18T06:42:54;-3.60;99.90
61807;DHT22;47726;52.766;6.606;2022-12-18T06:45:20;-3.60;99.90
61807;DHT22;47726;52.766;6.606;2022-12-18T06:47:45;-3.60;99.90
61807;DHT22;47726;52.766;6.606;2022-12-18T06:50:12;-3.60;99.90
61807;DHT22;47726;52.766;6.606;2022-12-18T06:52:38;-3.70;99.90
61807;DHT22;47726;52.766;6.606;2022-12-18T06:55:06;-3.70;99.90
61807;DHT22;47726;52.766;6.606;2022-12-18T06:57:35;-3.70;99.90
61807;DHT22;47726;52.766;6.606;2022-12-18T07:00:01;-3.70;99.90
61807;DHT22;47726;52.766;6.606;2022-12-18T07:02:28;-3.70;99.90
61807;DHT22;47726;52.766;6.606;2022-12-18T07:04:53;-3.70;99.90
61807;DHT22;47726;52.766;6.606;2022-12-18T07:07:19;-3.70;99.90
61807;DHT22;47726;52.766;6.606;2022-12-18T07:09:45;-3.80;99.90
61807;DHT22;47726;52.766;6.606;2022-12-18T07:12:10;-3.80;99.90
61807;DHT22;47726;52.766;6.606;2022-12-18T07:14:36;-3.80;99.90
61807;DHT22;47726;52.766;6.606;2022-12-18T07:17:01;-3.80;99.90
61807;DHT22;47726;52.766;6.606;2022-12-18T07:19:27;-3.80;99.90
61807;DHT22;47726;52.766;6.606;2022-12-18T07:21:53;-3.80;99.90
61807;DHT22;47726;52.766;6.606;2022-12-18T07:24:18;-3.80;99.90
61807;DHT22;47726;52.766;6.606;2022-12-18T07:26:46;-3.80;99.90
61807;DHT22;47726;52.766;6.606;2022-12-18T07:29:12;-3.80;99.90
61807;DHT22;47726;52.766;6.606;2022-12-18T07:31:38;-3.80;99.90
61807;DHT22;47726;52.766;6.606;2022-12-18T07:34:04;-3.80;99.90
61807;DHT22;47726;52.766;6.606;2022-12-18T07:36:29;-3.80;99.90
61807;DHT22;47726;52.766;6.606;2022-12-18T07:38:55;-3.90;99.90
61807;DHT22;47726;52.766;6.606;2022-12-18T07:41:21;-3.90;99.90
61807;DHT22;47726;52.766;6.606;2022-12-18T07:43:47;-3.90;99.90
61807;DHT22;47726;52.766;6.606;2022-12-18T07:46:14;-3.90;99.90
61807;DHT22;47726;52.766;6.606;2022-12-18T07:48:41;-3.90;99.90
61807;DHT22;47726;52.766;6.606;2022-12-18T07:51:07;-3.90;99.90
61807;DHT22;47726;52.766;6.606;2022-12-18T07:53:35;-3.80;99.90
61807;DHT22;47726;52.766;6.606;2022-12-18T07:56:09;-3.90;99.90
61807;DHT22;47726;52.766;6.606;2022-12-18T07:58:35;-3.80;99.90
61807;DHT22;47726;52.766;6.606;2022-12-18T08:01:11;-3.80;99.90
61807;DHT22;47726;52.766;6.606;2022-12-18T08:03:39;-3.80;99.90
61807;DHT22;47726;52.766;6.606;2022-12-18T08:06:07;-3.80;99.90
61807;DHT22;47726;52.766;6.606;2022-12-18T08:08:34;-3.80;99.90
61807;DHT22;47726;52.766;6.606;2022-12-18T08:11:00;-3.80;99.90
61807;DHT22;47726;52.766;6.606;2022-12-18T08:13:26;-3.80;99.90
61807;DHT22;47726;52.766;6.606;2022-12-18T08:16:00;-3.80;99.90
61807;DHT22;47726;52.766;6.606;2022-12-18T08:18:26;-3.70;99.90
61807;DHT22;47726;52.766;6.606;2022-12-18T08:20:52;-3.70;99.90
61807;DHT22;47726;52.766;6.606;2022-12-18T08:23:18;-3.70;99.90
61807;DHT22;47726;52.766;6.606;2022-12-18T08:25:43;-3.70;99.90
61807;DHT22;47726;52.766;6.606;2022-12-18T08:28:09;-3.60;99.90
61807;DHT22;47726;52.766;6.606;2022-12-18T08:30:35;-3.70;99.90
61807;DHT22;47726;52.766;6.606;2022-12-18T08:33:01;-3.60;99.90
61807;DHT22;47726;52.766;6.606;2022-12-18T08:35:27;-3.60;99.90
61807;DHT22;47726;52.766;6.606;2022-12-18T08:37:53;-3.50;99.90
61807;DHT22;47726;52.766;6.606;2022-12-18T08:40:19;-3.50;99.90
61807;DHT22;47726;52.766;6.606;2022-12-18T08:42:44;-3.50;99.90
61807;DHT22;47726;52.766;6.606;2022-12-18T08:45:29;-3.40;99.90
61807;DHT22;47726;52.766;6.606;2022-12-18T08:47:55;-3.40;99.90
61807;DHT22;47726;52.766;6.606;2022-12-18T08:50:20;-3.40;99.90
61807;DHT22;47726;52.766;6.606;2022-12-18T08:52:46;-3.30;99.90
61807;DHT22;47726;52.766;6.606;2022-12-18T08:55:12;-3.20;99.90
61807;DHT22;47726;52.766;6.606;2022-12-18T08:57:37;-3.10;99.90
61807;DHT22;47726;52.766;6.606;2022-12-18T09:00:04;-3.00;99.90
61807;DHT22;47726;52.766;6.606;2022-12-18T09:02:30;-2.90;99.90
61807;DHT22;47726;52.766;6.606;2022-12-18T09:04:56;-2.90;99.90
61807;DHT22;47726;52.766;6.606;2022-12-18T09:07:21;-2.70;99.90
61807;DHT22;47726;52.766;6.606;2022-12-18T09:09:47;-2.60;99.90
61807;DHT22;47726;52.766;6.606;2022-12-18T09:12:13;-2.50;99.90
61807;DHT22;47726;52.766;6.606;2022-12-18T09:14:38;-2.40;99.90
61807;DHT22;47726;52.766;6.606;2022-12-18T09:17:04;-2.40;99.90
61807;DHT22;47726;52.766;6.606;2022-12-18T09:19:29;-2.30;99.90
61807;DHT22;47726;52.766;6.606;2022-12-18T09:21:55;-2.30;99.90
61807;DHT22;47726;52.766;6.606;2022-12-18T09:24:21;-2.20;99.90
61807;DHT22;47726;52.766;6.606;2022-12-18T09:26:53;-2.20;99.90
61807;DHT22;47726;52.766;6.606;2022-12-18T09:29:20;-2.20;99.90
61807;DHT22;47726;52.766;6.606;2022-12-18T09:31:46;-2.10;99.90
61807;DHT22;47726;52.766;6.606;2022-12-18T09:34:11;-2.00;99.90
61807;DHT22;47726;52.766;6.606;2022-12-18T09:36:38;-2.00;99.90
61807;DHT22;47726;52.766;6.606;2022-12-18T09:39:04;-1.90;99.90
61807;DHT22;47726;52.766;6.606;2022-12-18T09:41:47;-1.90;99.90
61807;DHT22;47726;52.766;6.606;2022-12-18T09:44:32;-1.80;99.90
61807;DHT22;47726;52.766;6.606;2022-12-18T09:47:04;-1.80;99.90
61807;DHT22;47726;52.766;6.606;2022-12-18T09:49:39;-1.80;99.90
61807;DHT22;47726;52.766;6.606;2022-12-18T09:52:45;-1.80;99.90
61807;DHT22;47726;52.766;6.606;2022-12-18T09:55:15;-1.80;99.90
61807;DHT22;47726;52.766;6.606;2022-12-18T09:57:56;-1.80;99.90
61807;DHT22;47726;52.766;6.606;2022-12-18T10:00:24;-1.80;99.90
61807;DHT22;47726;52.766;6.606;2022-12-18T10:02:59;-1.70;99.90
61807;DHT22;47726;52.766;6.606;2022-12-18T10:05:33;-1.70;99.90
61807;DHT22;47726;52.766;6.606;2022-12-18T10:08:17;-1.70;99.90
61807;DHT22;47726;52.766;6.606;2022-12-18T10:10:57;-1.70;99.90
61807;DHT22;47726;52.766;6.606;2022-12-18T10:16:08;-1.60;99.90
61807;DHT22;47726;52.766;6.606;2022-12-18T10:21:18;-1.60;99.90
61807;DHT22;47726;52.766;6.606;2022-12-18T10:24:08;-1.50;99.90
61807;DHT22;47726;52.766;6.606;2022-12-18T10:26:38;-1.50;99.90
61807;DHT22;47726;52.766;6.606;2022-12-18T10:29:12;-1.60;99.90
61807;DHT22;47726;52.766;6.606;2022-12-18T10:31:39;-1.50;99.90
61807;DHT22;47726;52.766;6.606;2022-12-18T10:34:08;-1.50;99.90
61807;DHT22;47726;52.766;6.606;2022-12-18T10:36:34;-1.50;99.90
61807;DHT22;47726;52.766;6.606;2022-12-18T10:41:41;-1.50;99.90
61807;DHT22;47726;52.766;6.606;2022-12-18T10:44:19;-1.50;99.90
61807;DHT22;47726;52.766;6.606;2022-12-18T10:46:50;-1.50;99.90
61807;DHT22;47726;52.766;6.606;2022-12-18T10:49:29;-1.50;99.90
61807;DHT22;47726;52.766;6.606;2022-12-18T10:52:28;-1.50;99.90
61807;DHT22;47726;52.766;6.606;2022-12-18T10:55:02;-1.50;99.90
61807;DHT22;47726;52.766;6.606;2022-12-18T10:57:35;-1.40;99.90
61807;DHT22;47726;52.766;6.606;2022-12-18T11:02:47;-1.40;99.90
61807;DHT22;47726;52.766;6.606;2022-12-18T11:05:42;-1.40;99.90
61807;DHT22;47726;52.766;6.606;2022-12-18T11:08:20;-1.40;99.90
61807;DHT22;47726;52.766;6.606;2022-12-18T11:10:47;-1.40;99.90
61807;DHT22;47726;52.766;6.606;2022-12-18T11:13:17;-1.40;99.90
61807;DHT22;47726;52.766;6.606;2022-12-18T11:15:44;-1.40;99.90
61807;DHT22;47726;52.766;6.606;2022-12-18T11:18:28;-1.30;99.90
61807;DHT22;47726;52.766;6.606;2022-12-18T11:23:23;-1.30;99.90
61807;DHT22;47726;52.766;6.606;2022-12-18T11:26:03;-1.30;99.90
61807;DHT22;47726;52.766;6.606;2022-12-18T11:28:43;-1.30;99.90
61807;DHT22;47726;52.766;6.606;2022-12-18T11:34:02;-1.30;99.90
61807;DHT22;47726;52.766;6.606;2022-12-18T11:36:33;-1.20;99.90
61807;DHT22;47726;52.766;6.606;2022-12-18T11:39:11;-1.20;99.90
61807;DHT22;47726;52.766;6.606;2022-12-18T11:42:11;-1.20;99.90
61807;DHT22;47726;52.766;6.606;2022-12-18T11:47:38;-1.10;99.90
61807;DHT22;47726;52.766;6.606;2022-12-18T11:50:13;-1.10;99.90
61807;DHT22;47726;52.766;6.606;2022-12-18T11:52:41;-1.10;99.90
61807;DHT22;47726;52.766;6.606;2022-12-18T11:55:15;-1.10;99.90
61807;DHT22;47726;52.766;6.606;2022-12-18T12:00:26;-1.00;99.90
61807;DHT22;47726;52.766;6.606;2022-12-18T12:05:55;-1.00;99.90
61807;DHT22;47726;52.766;6.606;2022-12-18T12:33:59;-0.80;99.90
61807;DHT22;47726;52.766;6.606;2022-12-18T12:39:01;-0.80;99.90
61807;DHT22;47726;52.766;6.606;2022-12-18T12:41:31;-0.80;99.90
61807;DHT22;47726;52.766;6.606;2022-12-18T12:44:28;-0.80;99.90
61807;DHT22;47726;52.766;6.606;2022-12-18T12:47:01;-0.80;99.90
61807;DHT22;47726;52.766;6.606;2022-12-18T12:49:32;-0.70;99.90
61807;DHT22;47726;52.766;6.606;2022-12-18T12:52:05;-0.70;99.90
61807;DHT22;47726;52.766;6.606;2022-12-18T12:54:32;-0.70;99.90
61807;DHT22;47726;52.766;6.606;2022-12-18T12:57:23;-0.70;99.90
61807;DHT22;47726;52.766;6.606;2022-12-18T13:05:43;-0.60;99.90
61807;DHT22;47726;52.766;6.606;2022-12-18T13:08:26;-0.60;99.90
61807;DHT22;47726;52.766;6.606;2022-12-18T13:10:53;-0.60;99.90
61807;DHT22;47726;52.766;6.606;2022-12-18T13:13:54;-0.60;99.90
61807;DHT22;47726;52.766;6.606;2022-12-18T13:16:24;-0.50;99.90
61807;DHT22;47726;52.766;6.606;2022-12-18T13:18:52;-0.50;99.90
61807;DHT22;47726;52.766;6.606;2022-12-18T13:21:36;-0.50;99.90
61807;DHT22;47726;52.766;6.606;2022-12-18T13:24:34;-0.50;99.90
61807;DHT22;47726;52.766;6.606;2022-12-18T13:27:00;-0.50;99.90
61807;DHT22;47726;52.766;6.606;2022-12-18T13:29:46;-0.50;99.90
61807;DHT22;47726;52.766;6.606;2022-12-18T13:32:25;-0.50;99.90
61807;DHT22;47726;52.766;6.606;2022-12-18T13:37:54;-0.40;99.90
61807;DHT22;47726;52.766;6.606;2022-12-18T13:43:23;-0.40;99.90
61807;DHT22;47726;52.766;6.606;2022-12-18T13:46:06;-0.40;99.90
61807;DHT22;47726;52.766;6.606;2022-12-18T13:48:59;-0.40;99.90
61807;DHT22;47726;52.766;6.606;2022-12-18T13:51:26;-0.40;99.90
61807;DHT22;47726;52.766;6.606;2022-12-18T13:54:00;-0.40;99.90
61807;DHT22;47726;52.766;6.606;2022-12-18T13:56:32;-0.40;99.90
61807;DHT22;47726;52.766;6.606;2022-12-18T14:02:01;-0.40;99.90
61807;DHT22;47726;52.766;6.606;2022-12-18T14:04:35;-0.40;99.90
61807;DHT22;47726;52.766;6.606;2022-12-18T14:07:04;-0.40;99.90
61807;DHT22;47726;52.766;6.606;2022-12-18T14:09:36;-0.40;99.90
61807;DHT22;47726;52.766;6.606;2022-12-18T14:12:03;-0.30;99.90
61807;DHT22;47726;52.766;6.606;2022-12-18T14:14:49;-0.40;99.90
61807;DHT22;47726;52.766;6.606;2022-12-18T14:17:16;-0.40;99.90
61807;DHT22;47726;52.766;6.606;2022-12-18T14:19:48;-0.30;99.90
61807;DHT22;47726;52.766;6.606;2022-12-18T14:22:21;-0.40;99.90
61807;DHT22;47726;52.766;6.606;2022-12-18T14:24:47;-0.30;99.90
61807;DHT22;47726;52.766;6.606;2022-12-18T14:27:37;-0.40;99.90
61807;DHT22;47726;52.766;6.606;2022-12-18T14:33:05;-0.30;99.90
61807;DHT22;47726;52.766;6.606;2022-12-18T14:35:33;-0.30;99.90
61807;DHT22;47726;52.766;6.606;2022-12-18T14:40:47;-0.30;99.90
61807;DHT22;47726;52.766;6.606;2022-12-18T14:43:13;-0.30;99.90
61807;DHT22;47726;52.766;6.606;2022-12-18T14:45:45;-0.30;99.90
61807;DHT22;47726;52.766;6.606;2022-12-18T14:48:19;-0.30;99.90
61807;DHT22;47726;52.766;6.606;2022-12-18T14:50:58;-0.40;99.90
61807;DHT22;47726;52.766;6.606;2022-12-18T14:55:58;-0.30;99.90
61807;DHT22;47726;52.766;6.606;2022-12-18T14:58:23;-0.40;99.90
61807;DHT22;47726;52.766;6.606;2022-12-18T15:00:49;-0.30;99.90
61807;DHT22;47726;52.766;6.606;2022-12-18T15:03:18;-0.30;99.90
61807;DHT22;47726;52.766;6.606;2022-12-18T15:05:45;-0.40;99.90
61807;DHT22;47726;52.766;6.606;2022-12-18T15:08:35;-0.40;99.90
61807;DHT22;47726;52.766;6.606;2022-12-18T15:11:01;-0.40;99.90
61807;DHT22;47726;52.766;6.606;2022-12-18T15:13:27;-0.40;99.90
61807;DHT22;47726;52.766;6.606;2022-12-18T15:15:55;-0.40;99.90
61807;DHT22;47726;52.766;6.606;2022-12-18T15:18:30;-0.40;99.90
61807;DHT22;47726;52.766;6.606;2022-12-18T15:20:59;-0.40;99.90
61807;DHT22;47726;52.766;6.606;2022-12-18T15:23:35;-0.40;99.90
61807;DHT22;47726;52.766;6.606;2022-12-18T15:26:05;-0.40;99.90
61807;DHT22;47726;52.766;6.606;2022-12-18T15:28:37;-0.40;99.90
61807;DHT22;47726;52.766;6.606;2022-12-18T15:33:40;-0.40;99.90
61807;DHT22;47726;52.766;6.606;2022-12-18T15:36:15;-0.40;99.90
61807;DHT22;47726;52.766;6.606;2022-12-18T15:38:41;-0.40;99.90
61807;DHT22;47726;52.766;6.606;2022-12-18T15:41:16;-0.40;99.90
61807;DHT22;47726;52.766;6.606;2022-12-18T15:43:42;-0.40;99.90
61807;DHT22;47726;52.766;6.606;2022-12-18T15:46:16;-0.40;99.90
61807;DHT22;47726;52.766;6.606;2022-12-18T15:48:47;-0.40;99.90
61807;DHT22;47726;52.766;6.606;2022-12-18T15:51:23;-0.40;99.90
61807;DHT22;47726;52.766;6.606;2022-12-18T15:53:51;-0.40;99.90
61807;DHT22;47726;52.766;6.606;2022-12-18T15:56:19;-0.40;99.90
61807;DHT22;47726;52.766;6.606;2022-12-18T15:59:12;-0.40;99.90
61807;DHT22;47726;52.766;6.606;2022-12-18T16:01:39;-0.40;99.90
61807;DHT22;47726;52.766;6.606;2022-12-18T16:04:05;-0.40;99.90
61807;DHT22;47726;52.766;6.606;2022-12-18T16:06:31;-0.40;99.90
61807;DHT22;47726;52.766;6.606;2022-12-18T16:08:57;-0.40;99.90
61807;DHT22;47726;52.766;6.606;2022-12-18T16:11:24;-0.40;99.90
61807;DHT22;47726;52.766;6.606;2022-12-18T16:14:22;-0.40;99.90
61807;DHT22;47726;52.766;6.606;2022-12-18T16:16:49;-0.40;99.90
61807;DHT22;47726;52.766;6.606;2022-12-18T16:19:15;-0.40;99.90
61807;DHT22;47726;52.766;6.606;2022-12-18T16:21:42;-0.40;99.90
61807;DHT22;47726;52.766;6.606;2022-12-18T16:24:19;-0.40;99.90
61807;DHT22;47726;52.766;6.606;2022-12-18T16:26:47;-0.40;99.90
61807;DHT22;47726;52.766;6.606;2022-12-18T16:29:13;-0.40;99.90
61807;DHT22;47726;52.766;6.606;2022-12-18T16:31:39;-0.40;99.90
61807;DHT22;47726;52.766;6.606;2022-12-18T16:34:23;-0.40;99.90
61807;DHT22;47726;52.766;6.606;2022-12-18T16:36:51;-0.40;99.90
61807;DHT22;47726;52.766;6.606;2022-12-18T16:39:17;-0.40;99.90
61807;DHT22;47726;52.766;6.606;2022-12-18T16:41:43;-0.40;99.90
61807;DHT22;47726;52.766;6.606;2022-12-18T16:44:09;-0.40;99.90
61807;DHT22;47726;52.766;6.606;2022-12-18T16:46:36;-0.40;99.90
61807;DHT22;47726;52.766;6.606;2022-12-18T16:49:02;-0.40;99.90
61807;DHT22;47726;52.766;6.606;2022-12-18T16:51:28;-0.40;99.90
61807;DHT22;47726;52.766;6.606;2022-12-18T16:53:54;-0.40;99.90
61807;DHT22;47726;52.766;6.606;2022-12-18T16:56:23;-0.40;99.90
61807;DHT22;47726;52.766;6.606;2022-12-18T16:58:54;-0.40;99.90
61807;DHT22;47726;52.766;6.606;2022-12-18T17:01:20;-0.40;99.90
61807;DHT22;47726;52.766;6.606;2022-12-18T17:03:57;-0.40;99.90
61807;DHT22;47726;52.766;6.606;2022-12-18T17:06:24;-0.40;99.90
61807;DHT22;47726;52.766;6.606;2022-12-18T17:09:06;-0.40;99.90
61807;DHT22;47726;52.766;6.606;2022-12-18T17:11:33;-0.40;99.90
61807;DHT22;47726;52.766;6.606;2022-12-18T17:13:59;-0.40;99.90
61807;DHT22;47726;52.766;6.606;2022-12-18T17:16:25;-0.40;99.90
61807;DHT22;47726;52.766;6.606;2022-12-18T17:18:54;-0.40;99.90
61807;DHT22;47726;52.766;6.606;2022-12-18T17:21:19;-0.40;99.90
61807;DHT22;47726;52.766;6.606;2022-12-18T17:23:45;-0.40;99.90
61807;DHT22;47726;52.766;6.606;2022-12-18T17:26:11;-0.30;99.90
61807;DHT22;47726;52.766;6.606;2022-12-18T17:28:38;-0.30;99.90
61807;DHT22;47726;52.766;6.606;2022-12-18T17:31:17;-0.40;99.90
61807;DHT22;47726;52.766;6.606;2022-12-18T17:33:43;-0.40;99.90
61807;DHT22;47726;52.766;6.606;2022-12-18T17:36:09;-0.30;99.90
61807;DHT22;47726;52.766;6.606;2022-12-18T17:38:36;-0.30;99.90
61807;DHT22;47726;52.766;6.606;2022-12-18T17:41:03;-0.30;99.90